Time;durP1;ratioP1;P1;durP2;ratioP2;P2;SDS_P1;SDS_P2;PMS_P1;PMS_P2;Temp;Humidity;BMP_temperature;BMP_pressure;BME280_temperature;BME280_humidity;BME280_pressure;Samples;Min_cycle;Max_cycle;Signal;HPM_P1;HPM_P2
2023/03/26 00:01:20;;;;;;;13.48;1.52;;;9.80;99.90;;;;;;4787424;30;20027;-75
2023/03/26 00:03:52;;;;;;;12.10;1.15;;;9.80;99.90;;;;;;4787747;30;20038;-75
2023/03/26 00:06:20;;;;;;;10.48;1.42;;;9.80;99.90;;;;;;4773182;30;20036;-74
2023/03/26 00:08:46;;;;;;;12.05;1.40;;;9.90;99.90;;;;;;4788400;30;20051;-73
2023/03/26 00:11:14;;;;;;;13.50;1.50;;;9.90;99.90;;;;;;4788581;30;20426;-75
2023/03/26 00:13:42;;;;;;;9.55;1.75;;;9.90;99.90;;;;;;4787754;30;20039;-74
2023/03/26 00:16:12;;;;;;;14.18;2.22;;;10.00;99.90;;;;;;4788921;30;20038;-74
2023/03/26 00:18:39;;;;;;;15.55;1.65;;;10.00;99.90;;;;;;4788605;30;20117;-75
2023/03/26 00:21:06;;;;;;;16.33;2.13;;;10.00;99.90;;;;;;4788082;30;20499;-75
2023/03/26 00:23:34;;;;;;;16.73;2.75;;;10.00;99.90;;;;;;4786800;30;20070;-74
2023/03/26 00:26:00;;;;;;;14.88;2.30;;;10.00;99.90;;;;;;4788433;30;20031;-75
2023/03/26 00:28:26;;;;;;;23.60;3.03;;;10.00;99.90;;;;;;4788406;30;20027;-75
2023/03/26 00:31:04;;;;;;;21.83;2.70;;;10.00;99.90;;;;;;4772747;30;20057;-75
2023/03/26 00:33:30;;;;;;;15.48;2.47;;;10.00;99.90;;;;;;4787826;30;20126;-75
2023/03/26 00:35:59;;;;;;;20.60;2.30;;;10.10;99.90;;;;;;4772666;30;20035;-75
2023/03/26 00:38:26;;;;;;;21.05;3.35;;;10.10;99.90;;;;;;4787089;30;20482;-74
2023/03/26 00:40:53;;;;;;;20.90;2.97;;;10.10;99.90;;;;;;4786456;30;20082;-75
2023/03/26 00:43:19;;;;;;;26.20;3.20;;;10.10;99.90;;;;;;4786935;30;20043;-75
2023/03/26 00:45:52;;;;;;;28.30;4.35;;;10.10;99.90;;;;;;4772257;30;20493;-74
2023/03/26 00:48:18;;;;;;;;;;;10.10;99.90;;;;;;4787111;30;20122;-75
2023/03/26 00:50:46;;;;;;;29.50;4.22;;;10.00;99.90;;;;;;4788158;30;19953;-75
2023/03/26 00:53:12;;;;;;;22.33;3.85;;;10.00;99.90;;;;;;4788523;30;20035;-75
2023/03/26 00:55:43;;;;;;;30.48;4.28;;;10.00;99.90;;;;;;4771723;30;20122;-75
2023/03/26 00:58:11;;;;;;;30.08;4.32;;;10.00;99.90;;;;;;4786549;30;20034;-74
2023/03/26 01:00:49;;;;;;;27.73;4.38;;;10.00;99.90;;;;;;4786771;30;20047;-75
2023/03/26 01:03:17;;;;;;;36.47;4.45;;;10.00;99.90;;;;;;4787905;30;20099;-75
2023/03/26 01:05:54;;;;;;;30.40;3.83;;;10.00;99.90;;;;;;4788417;30;20035;-75
2023/03/26 01:08:47;;;;;;;35.38;5.60;;;10.00;99.90;;;;;;4787163;30;20037;-75
2023/03/26 01:11:15;;;;;;;;;;;10.00;99.90;;;;;;4787001;30;20040;-75
2023/03/26 01:13:48;;;;;;;22.33;3.92;;;10.00;99.90;;;;;;4786802;30;19982;-75
2023/03/26 01:16:37;;;;;;;30.60;4.28;;;10.00;99.90;;;;;;4787864;30;20035;-74
2023/03/26 01:19:12;;;;;;;35.50;4.93;;;10.00;99.90;;;;;;4772292;30;20365;-75
2023/03/26 01:21:38;;;;;;;29.08;4.60;;;10.00;99.90;;;;;;4787999;30;20073;-74
2023/03/26 01:24:09;;;;;;;32.78;4.45;;;10.00;99.90;;;;;;4787376;30;20055;-75
2023/03/26 01:26:43;;;;;;;32.10;4.97;;;10.00;99.90;;;;;;4786805;30;20043;-75
2023/03/26 01:29:28;;;;;;;28.42;4.97;;;10.10;99.90;;;;;;4787627;30;20085;-75
2023/03/26 01:31:59;;;;;;;31.70;5.05;;;10.00;99.90;;;;;;4788182;30;20074;-75
2023/03/26 01:35:07;;;;;;;30.50;5.07;;;10.10;99.90;;;;;;4772405;30;20043;-74
2023/03/26 01:38:09;;;;;;;35.28;5.00;;;10.10;99.90;;;;;;4768033;30;20073;-75
2023/03/26 01:40:48;;;;;;;33.17;5.30;;;10.10;99.90;;;;;;4771588;30;20070;-75
2023/03/26 01:43:38;;;;;;;32.85;5.00;;;10.20;99.90;;;;;;4787829;30;20088;-74
2023/03/26 01:46:10;;;;;;;44.47;6.30;;;10.20;99.90;;;;;;4786199;30;20058;-74
2023/03/26 01:48:39;;;;;;;34.20;5.32;;;10.20;99.90;;;;;;4786157;30;20133;-74
2023/03/26 01:51:07;;;;;;;35.85;4.95;;;10.20;99.90;;;;;;4787364;30;20031;-74
2023/03/26 01:53:36;;;;;;;33.90;5.50;;;10.30;99.90;;;;;;4786339;30;20035;-74
2023/03/26 01:56:16;;;;;;;33.17;5.57;;;10.30;99.90;;;;;;4787073;30;20039;-74
2023/03/26 01:59:05;;;;;;;30.00;5.05;;;10.30;99.90;;;;;;4771157;30;20062;-74
2023/03/26 02:01:57;;;;;;;39.42;5.70;;;10.30;99.90;;;;;;4769771;30;20051;-74
2023/03/26 02:04:38;;;;;;;32.65;5.57;;;10.40;99.90;;;;;;4787025;30;20503;-74
2023/03/26 02:07:27;;;;;;;34.75;6.18;;;10.30;99.90;;;;;;4771799;30;20047;-75
2023/03/26 02:10:00;;;;;;;35.35;6.97;;;10.30;99.90;;;;;;4790507;30;20365;-74
2023/03/26 02:12:28;;;;;;;35.10;6.15;;;10.40;99.90;;;;;;4789043;30;20130;-74
2023/03/26 02:14:53;;;;;;;30.30;5.32;;;10.40;99.90;;;;;;4774801;30;20083;-74
2023/03/26 02:17:22;;;;;;;34.13;5.32;;;10.40;99.90;;;;;;4774105;30;20035;-74
2023/03/26 02:19:50;;;;;;;34.60;5.80;;;10.40;99.90;;;;;;4774855;30;20034;-75
2023/03/26 02:22:16;;;;;;;34.42;5.35;;;10.50;99.90;;;;;;4789396;30;20039;-74
2023/03/26 02:24:42;;;;;;;34.50;5.40;;;10.50;99.90;;;;;;4788860;30;20027;-74
2023/03/26 02:27:11;;;;;;;37.08;5.85;;;10.40;99.90;;;;;;4790187;30;20043;-74
2023/03/26 02:29:38;;;;;;;42.60;5.80;;;10.40;99.90;;;;;;4773883;30;20202;-74
2023/03/26 02:32:12;;;;;;;36.47;5.93;;;10.40;99.90;;;;;;4790108;30;20032;-74
2023/03/26 02:34:38;;;;;;;43.17;7.22;;;10.40;99.90;;;;;;4774226;30;20043;-74
2023/03/26 02:37:04;;;;;;;34.22;5.25;;;10.40;99.90;;;;;;4773819;30;20051;-75
2023/03/26 02:39:29;;;;;;;32.10;5.70;;;10.50;99.90;;;;;;4770537;30;20070;-74
2023/03/26 02:41:55;;;;;;;33.58;5.13;;;10.50;99.90;;;;;;4770939;30;20089;-74
2023/03/26 02:44:21;;;;;;;41.70;6.25;;;10.40;99.90;;;;;;4756359;30;20096;-75
2023/03/26 02:46:46;;;;;;;39.72;5.90;;;10.40;99.90;;;;;;4771123;30;20105;-74
2023/03/26 02:49:12;;;;;;;34.13;6.00;;;10.50;99.90;;;;;;4771055;30;20496;-74
2023/03/26 02:51:38;;;;;;;28.98;5.05;;;10.40;99.90;;;;;;4770575;30;20123;-75
2023/03/26 02:54:05;;;;;;;36.80;5.90;;;10.50;99.90;;;;;;4755802;30;20473;-75
2023/03/26 02:56:31;;;;;;;40.42;6.68;;;10.50;99.90;;;;;;4770316;30;20434;-75
2023/03/26 02:58:57;;;;;;;32.28;5.70;;;10.40;99.90;;;;;;4771746;30;20043;-74
2023/03/26 03:01:23;;;;;;;45.92;7.07;;;10.50;99.90;;;;;;4785117;30;20040;-75
2023/03/26 03:03:49;;;;;;;47.75;6.30;;;10.50;99.90;;;;;;4770337;30;20032;-74
2023/03/26 03:06:17;;;;;;;35.13;6.40;;;10.50;99.90;;;;;;4755226;30;20040;-74
2023/03/26 03:08:47;;;;;;;39.00;5.90;;;10.50;99.90;;;;;;4771582;30;20451;-74
2023/03/26 03:11:16;;;;;;;45.80;10.00;;;10.50;99.90;;;;;;4771235;30;20031;-74
2023/03/26 03:13:42;;;;;;;37.88;6.88;;;10.50;99.90;;;;;;4784922;30;20087;-74
2023/03/26 03:16:09;;;;;;;42.72;7.15;;;10.50;99.90;;;;;;4770489;30;20036;-75
2023/03/26 03:18:35;;;;;;;34.55;7.90;;;10.50;99.90;;;;;;4770976;30;20149;-75
2023/03/26 03:21:01;;;;;;;35.95;6.88;;;10.50;99.90;;;;;;4784857;30;20118;-75
2023/03/26 03:23:27;;;;;;;42.90;8.02;;;10.60;99.90;;;;;;4755780;30;20189;-74
2023/03/26 03:25:55;;;;;;;39.00;6.88;;;10.50;99.90;;;;;;4770394;30;20118;-74
2023/03/26 03:28:22;;;;;;;35.72;7.53;;;10.50;99.90;;;;;;4771272;30;20076;-75
2023/03/26 03:30:52;;;;;;;35.97;7.18;;;10.40;99.90;;;;;;4773040;30;20114;-76
2023/03/26 03:33:21;;;;;;;41.08;8.43;;;10.40;99.90;;;;;;4773197;30;20106;-76
2023/03/26 03:35:48;;;;;;;39.40;7.80;;;10.50;99.90;;;;;;4772347;30;20039;-76
2023/03/26 03:38:15;;;;;;;40.67;8.35;;;10.50;99.90;;;;;;4773638;30;20032;-76
2023/03/26 03:40:42;;;;;;;34.55;7.75;;;10.50;99.90;;;;;;4787035;30;20126;-75
2023/03/26 03:43:07;;;;;;;36.05;8.80;;;10.50;99.90;;;;;;4788865;30;20047;-75
2023/03/26 03:45:33;;;;;;;39.33;8.77;;;10.50;99.90;;;;;;4788973;30;20039;-75
2023/03/26 03:47:59;;;;;;;39.03;8.32;;;10.50;99.90;;;;;;4788493;30;20059;-74
2023/03/26 03:50:25;;;;;;;35.70;8.60;;;10.50;99.90;;;;;;4772622;30;20067;-74
2023/03/26 03:52:51;;;;;;;38.83;7.97;;;10.50;99.90;;;;;;4788694;30;20042;-74
2023/03/26 03:55:17;;;;;;;30.25;7.53;;;10.50;99.90;;;;;;4772446;30;20420;-73
2023/03/26 03:57:42;;;;;;;35.75;7.25;;;10.50;99.90;;;;;;4788630;30;20058;-74
2023/03/26 04:00:10;;;;;;;41.50;8.20;;;10.50;99.90;;;;;;4772885;30;20157;-74
2023/03/26 04:02:36;;;;;;;38.40;7.28;;;10.50;99.90;;;;;;4787201;30;20134;-74
2023/03/26 04:05:04;;;;;;;37.05;6.97;;;10.50;99.90;;;;;;4787758;30;20107;-74
2023/03/26 04:07:31;;;;;;;45.30;7.30;;;10.50;99.90;;;;;;4787049;30;20039;-73
2023/03/26 04:09:58;;;;;;;34.95;5.63;;;10.40;99.90;;;;;;4787724;30;20114;-73
2023/03/26 04:12:29;;;;;;;40.38;7.32;;;10.40;99.90;;;;;;4772289;30;20116;-73
2023/03/26 04:14:55;;;;;;;41.28;6.03;;;10.40;99.90;;;;;;4772345;30;20039;-73
2023/03/26 04:17:21;;;;;;;39.60;6.55;;;10.50;99.90;;;;;;4788254;30;20031;-73
2023/03/26 04:19:49;;;;;;;41.40;6.45;;;10.50;99.90;;;;;;4772126;30;20039;-74
2023/03/26 04:22:18;;;;;;;41.13;6.45;;;10.50;99.90;;;;;;4772430;30;20039;-74
2023/03/26 04:24:44;;;;;;;34.40;6.07;;;10.40;99.90;;;;;;4786881;30;20164;-73
2023/03/26 04:27:17;;;;;;;33.10;5.35;;;10.50;99.90;;;;;;4787886;30;20525;-73
2023/03/26 04:29:46;;;;;;;23.48;4.45;;;10.40;99.90;;;;;;4787122;29;20032;-73
2023/03/26 04:32:25;;;;;;;36.03;6.35;;;10.50;99.90;;;;;;4787904;30;20046;-73
2023/03/26 04:34:51;;;;;;;27.45;5.03;;;10.40;99.90;;;;;;4786630;30;20035;-73
2023/03/26 04:37:26;;;;;;;24.33;4.60;;;10.50;99.90;;;;;;4788150;30;20499;-73
2023/03/26 04:39:53;;;;;;;34.70;5.55;;;10.50;99.90;;;;;;4787838;30;20077;-73
2023/03/26 04:42:19;;;;;;;32.28;5.40;;;10.60;99.90;;;;;;4787827;30;20046;-73
2023/03/26 04:44:49;;;;;;;25.35;4.88;;;10.60;99.90;;;;;;4787858;30;20094;-73
2023/03/26 04:47:16;;;;;;;39.17;5.55;;;10.70;99.90;;;;;;4771836;30;20119;-73
2023/03/26 04:49:42;;;;;;;28.83;4.75;;;10.70;99.90;;;;;;4772203;30;20488;-72
2023/03/26 04:52:11;;;;;;;27.52;4.38;;;10.70;99.90;;;;;;4787832;30;20461;-73
2023/03/26 04:54:37;;;;;;;27.50;4.60;;;10.70;99.90;;;;;;4786856;30;20043;-73
2023/03/26 04:57:08;;;;;;;26.13;4.20;;;10.70;99.90;;;;;;4787387;30;20047;-73
2023/03/26 04:59:34;;;;;;;29.65;5.15;;;10.80;99.90;;;;;;4787643;30;20108;-73
2023/03/26 05:02:01;;;;;;;28.65;4.88;;;10.80;99.90;;;;;;4771406;30;20035;-73
2023/03/26 05:04:32;;;;;;;23.90;3.65;;;10.80;99.90;;;;;;4787549;30;20043;-72
2023/03/26 05:06:59;;;;;;;24.30;3.58;;;10.80;99.90;;;;;;4786287;30;20034;-73
2023/03/26 05:09:25;;;;;;;24.25;4.00;;;10.80;99.90;;;;;;4787589;30;20043;-73
2023/03/26 05:11:51;;;;;;;27.00;4.57;;;10.80;99.90;;;;;;4786316;30;20047;-73
2023/03/26 05:14:18;;;;;;;26.63;4.40;;;10.90;99.90;;;;;;4787309;30;20044;-73
2023/03/26 05:16:45;;;;;;;29.08;3.63;;;10.90;99.90;;;;;;4787791;30;20034;-74
2023/03/26 05:19:11;;;;;;;26.88;4.90;;;10.90;99.90;;;;;;4787026;30;20119;-73
2023/03/26 05:21:37;;;;;;;30.02;3.75;;;10.90;99.90;;;;;;4772401;30;20089;-73
2023/03/26 05:24:05;;;;;;;28.23;4.40;;;10.90;99.90;;;;;;4775226;30;20035;-73
2023/03/26 05:26:31;;;;;;;23.67;3.72;;;10.90;99.90;;;;;;4774339;30;20042;-73
2023/03/26 05:28:57;;;;;;;23.08;3.65;;;11.00;99.90;;;;;;4795848;30;20031;-74
2023/03/26 05:31:25;;;;;;;28.83;3.70;;;11.00;99.90;;;;;;4775917;30;20115;-73
2023/03/26 05:33:51;;;;;;;29.88;4.18;;;11.00;99.90;;;;;;4788132;30;20035;-73
2023/03/26 05:36:18;;;;;;;24.27;3.88;;;11.00;99.90;;;;;;4786780;30;20182;-73
2023/03/26 05:38:48;;;;;;;22.25;4.15;;;11.00;99.90;;;;;;4787862;30;20035;-74
2023/03/26 05:41:15;;;;;;;27.90;4.53;;;11.00;99.90;;;;;;4786990;30;20108;-73
2023/03/26 05:43:43;;;;;;;25.42;3.80;;;11.00;99.90;;;;;;4790437;30;20541;-74
2023/03/26 05:46:10;;;;;;;26.13;3.83;;;11.00;99.90;;;;;;4789419;30;20372;-73
2023/03/26 05:48:37;;;;;;;23.83;3.72;;;11.10;99.90;;;;;;4790147;30;20031;-73
2023/03/26 05:51:03;;;;;;;30.77;4.72;;;11.10;99.90;;;;;;4792031;30;20164;-74
2023/03/26 05:53:29;;;;;;;27.45;4.22;;;11.00;99.90;;;;;;4790563;30;20039;-74
2023/03/26 05:55:58;;;;;;;35.33;4.88;;;11.00;99.90;;;;;;4774517;30;20051;-74
2023/03/26 05:58:29;;;;;;;31.02;4.70;;;10.90;99.90;;;;;;4790826;30;20043;-75
2023/03/26 06:01:01;;;;;;;29.42;4.55;;;10.80;99.90;;;;;;4789939;30;20476;-74
2023/03/26 06:03:27;;;;;;;28.42;5.03;;;10.80;99.90;;;;;;4790942;30;20042;-75
2023/03/26 06:05:53;;;;;;;31.20;5.20;;;10.90;99.90;;;;;;4793700;30;20044;-75
2023/03/26 06:08:19;;;;;;;26.42;4.70;;;10.80;99.90;;;;;;4804191;30;20052;-74
2023/03/26 06:10:45;;;;;;;31.95;4.78;;;10.80;99.90;;;;;;4798945;30;20058;-75
2023/03/26 06:13:12;;;;;;;23.60;4.90;;;10.80;99.90;;;;;;4774433;30;20086;-75
2023/03/26 06:15:38;;;;;;;28.05;5.75;;;10.70;99.90;;;;;;4774384;30;20040;-75
2023/03/26 06:18:03;;;;;;;25.10;4.53;;;10.70;99.90;;;;;;4774180;30;20038;-74
2023/03/26 06:20:29;;;;;;;32.45;5.38;;;10.80;99.90;;;;;;4790166;30;20059;-74
2023/03/26 06:22:55;;;;;;;25.98;3.65;;;10.80;99.90;;;;;;4790174;30;20491;-75
2023/03/26 06:25:20;;;;;;;25.25;4.90;;;10.80;99.90;;;;;;4789123;30;20065;-74
2023/03/26 06:27:46;;;;;;;38.90;5.25;;;10.80;99.90;;;;;;4788721;30;20031;-75
2023/03/26 06:30:12;;;;;;;30.58;4.70;;;10.80;99.90;;;;;;4790554;30;20385;-75
2023/03/26 06:32:38;;;;;;;30.17;5.13;;;10.80;99.90;;;;;;4788778;30;20465;-75
2023/03/26 06:35:04;;;;;;;24.35;4.15;;;10.70;99.90;;;;;;4774037;30;20065;-75
2023/03/26 06:37:29;;;;;;;28.77;4.88;;;10.70;99.90;;;;;;4788791;30;20039;-74
2023/03/26 06:39:55;;;;;;;31.70;5.60;;;10.70;99.90;;;;;;4773421;30;20065;-75
2023/03/26 06:42:21;;;;;;;30.50;5.68;;;10.70;99.90;;;;;;4790167;30;20087;-75
2023/03/26 06:44:46;;;;;;;31.92;5.13;;;10.70;99.90;;;;;;4773729;30;20035;-75
2023/03/26 06:47:12;;;;;;;37.05;5.47;;;10.80;99.90;;;;;;4774150;30;20032;-75
2023/03/26 06:49:38;;;;;;;26.38;4.72;;;10.70;99.90;;;;;;4789893;30;20027;-74
2023/03/26 06:52:04;;;;;;;35.83;6.22;;;10.60;99.90;;;;;;4758781;30;20074;-75
2023/03/26 06:54:30;;;;;;;32.03;6.32;;;10.60;99.90;;;;;;4787648;29;20083;-74
2023/03/26 06:56:57;;;;;;;31.23;6.05;;;10.60;99.90;;;;;;4788894;30;20138;-74
2023/03/26 06:59:23;;;;;;;39.92;5.97;;;10.60;99.90;;;;;;4773506;30;20044;-74
2023/03/26 07:01:49;;;;;;;29.65;5.78;;;10.50;99.90;;;;;;4773683;30;20043;-74
2023/03/26 07:04:14;;;;;;;29.27;5.45;;;10.40;99.90;;;;;;4773586;30;20031;-74
2023/03/26 07:06:40;;;;;;;31.67;6.43;;;10.40;99.90;;;;;;4773582;30;20042;-74
2023/03/26 07:09:05;;;;;;;30.20;5.90;;;10.40;99.90;;;;;;4774024;30;20139;-74
2023/03/26 07:11:31;;;;;;;30.92;5.53;;;10.50;99.90;;;;;;4773585;30;20031;-74
2023/03/26 07:13:58;;;;;;;34.03;6.57;;;10.50;99.90;;;;;;4773226;30;20046;-76
2023/03/26 07:16:24;;;;;;;38.42;6.85;;;10.50;99.90;;;;;;4789948;30;20110;-76
2023/03/26 07:18:50;;;;;;;29.50;5.40;;;10.50;99.90;;;;;;4773805;30;20395;-75
2023/03/26 07:21:16;;;;;;;25.30;5.18;;;10.50;99.90;;;;;;4775025;30;20036;-75
2023/03/26 07:23:42;;;;;;;39.58;5.65;;;10.40;99.90;;;;;;4790050;30;20050;-75
2023/03/26 07:26:17;;;;;;;31.55;5.53;;;10.30;99.90;;;;;;4774226;30;20039;-75
2023/03/26 07:28:55;;;;;;;37.17;5.78;;;10.30;99.90;;;;;;4773802;30;20028;-75
2023/03/26 07:31:43;;;;;;;30.98;4.57;;;10.30;99.90;;;;;;4788152;30;20065;-75
2023/03/26 07:34:29;;;;;;;32.25;6.03;;;10.30;99.90;;;;;;4789352;30;20047;-75
2023/03/26 07:37:45;;;;;;;27.70;5.38;;;10.40;99.90;;;;;;4789348;30;20480;-75
2023/03/26 07:40:35;;;;;;;28.83;4.95;;;10.30;99.90;;;;;;4750894;30;20063;-75
2023/03/26 07:43:11;;;;;;;33.45;5.90;;;10.30;99.90;;;;;;4771509;30;20123;-75
2023/03/26 07:45:40;;;;;;;28.63;5.50;;;10.30;99.90;;;;;;4769759;30;20028;-75
2023/03/26 07:48:30;;;;;;;38.65;6.35;;;10.20;99.90;;;;;;4770890;30;20036;-75
2023/03/26 07:50:56;;;;;;;35.33;6.15;;;10.10;99.90;;;;;;4770023;30;20038;-75
2023/03/26 07:53:22;;;;;;;32.22;5.63;;;10.10;99.90;;;;;;4769668;30;20039;-77
2023/03/26 07:55:53;;;;;;;24.92;5.53;;;10.10;99.90;;;;;;4769738;30;20138;-75
2023/03/26 07:58:39;;;;;;;28.52;5.22;;;10.10;99.90;;;;;;4771203;30;20028;-75
2023/03/26 08:01:41;;;;;;;21.23;5.28;;;10.30;99.90;;;;;;4770109;30;20027;-75
2023/03/26 08:04:06;;;;;;;26.73;4.50;;;10.40;99.90;;;;;;4766619;30;20075;-76
2023/03/26 08:06:38;;;;;;;26.15;4.30;;;10.50;99.90;;;;;;4770571;30;20067;-75
2023/03/26 08:09:27;;;;;;;26.88;5.00;;;10.50;99.90;;;;;;4771035;30;20036;-75
2023/03/26 08:12:05;;;;;;;27.20;4.60;;;10.60;99.90;;;;;;4784533;29;20047;-76
2023/03/26 08:14:50;;;;;;;27.40;4.50;;;10.60;99.90;;;;;;4769345;30;20036;-76
2023/03/26 08:17:18;;;;;;;23.95;4.50;;;10.70;99.90;;;;;;4769861;30;20382;-76
2023/03/26 08:20:00;;;;;;;26.90;4.78;;;10.70;99.90;;;;;;4769366;30;20066;-76
2023/03/26 08:22:29;;;;;;;29.63;5.20;;;10.80;99.90;;;;;;4769226;30;20039;-76
2023/03/26 08:25:16;;;;;;;31.05;5.65;;;10.80;99.90;;;;;;4783371;29;20051;-76
2023/03/26 08:27:57;;;;;;;27.52;5.30;;;10.80;99.90;;;;;;4770334;30;20039;-76
2023/03/26 08:30:25;;;;;;;23.65;5.53;;;10.80;99.90;;;;;;4769186;30;20464;-76
2023/03/26 08:33:01;;;;;;;26.90;4.53;;;10.80;99.90;;;;;;4770063;30;20069;-76
2023/03/26 08:35:27;;;;;;;28.42;5.90;;;10.90;99.90;;;;;;4783869;29;20039;-75
2023/03/26 08:37:53;;;;;;;26.27;4.78;;;10.90;99.90;;;;;;4769752;30;20115;-75
2023/03/26 08:40:29;;;;;;;28.88;5.15;;;10.90;99.90;;;;;;4768414;30;20509;-75
2023/03/26 08:43:27;;;;;;;30.17;4.65;;;10.90;99.90;;;;;;4768700;30;20486;-75
2023/03/26 08:46:19;;;;;;;28.55;6.13;;;10.80;99.90;;;;;;4783776;30;20450;-75
2023/03/26 08:49:12;;;;;;;27.73;4.50;;;10.80;99.90;;;;;;4784011;30;20039;-75
2023/03/26 08:52:03;;;;;;;23.30;5.13;;;10.80;99.90;;;;;;4769960;30;20043;-75
2023/03/26 08:54:51;;;;;;;30.80;5.03;;;10.80;99.90;;;;;;4770116;30;20046;-76
2023/03/26 08:57:54;;;;;;;24.48;4.30;;;10.90;99.90;;;;;;4769570;30;20569;-74
2023/03/26 09:00:46;;;;;;;22.38;4.55;;;10.90;99.90;;;;;;4768347;30;20032;-74
2023/03/26 09:03:33;;;;;;;26.13;4.90;;;10.90;99.90;;;;;;4768721;30;20093;-73
2023/03/26 09:06:20;;;;;;;23.88;5.47;;;10.90;99.90;;;;;;4768890;30;20370;-74
2023/03/26 09:09:21;;;;;;;24.27;5.97;;;10.80;99.90;;;;;;4768305;30;20533;-75
2023/03/26 09:12:13;;;;;;;21.42;5.18;;;10.80;99.90;;;;;;4769363;30;20088;-75
2023/03/26 09:15:06;;;;;;;22.35;3.90;;;10.70;99.90;;;;;;4770125;30;20040;-74
2023/03/26 09:17:59;;;;;;;11.82;3.38;;;10.70;99.90;;;;;;4771372;30;20036;-74
2023/03/26 09:20:25;;;;;;;;;;;10.70;99.90;;;;;;4773895;30;20039;-74
2023/03/26 09:23:09;;;;;;;16.48;3.90;;;10.80;99.90;;;;;;4788168;30;19916;-75
2023/03/26 09:26:03;;;;;;;19.17;4.72;;;10.90;99.90;;;;;;4774105;30;20035;-78
2023/03/26 09:28:52;;;;;;;14.38;3.50;;;10.90;99.90;;;;;;4782539;30;20491;-76
2023/03/26 09:31:45;;;;;;;19.15;4.22;;;10.90;99.90;;;;;;4773705;30;20042;-77
2023/03/26 09:34:22;;;;;;;;;;;10.90;99.90;;;;;;4774234;30;20051;-76
2023/03/26 09:37:17;;;;;;;17.00;4.25;;;11.00;99.90;;;;;;4787216;30;19909;-75
2023/03/26 09:39:45;;;;;;;19.45;5.78;;;11.00;99.90;;;;;;4773738;30;20024;-76
2023/03/26 09:42:32;;;;;;;19.35;5.85;;;11.00;99.90;;;;;;4790956;30;20043;-75
2023/03/26 09:45:23;;;;;;;28.00;10.43;;;10.90;99.90;;;;;;4789400;30;20086;-75
2023/03/26 09:48:22;;;;;;;25.98;6.45;;;10.70;99.90;;;;;;4789572;30;20031;-74
2023/03/26 09:51:03;;;;;;;21.70;6.32;;;10.70;99.90;;;;;;4789324;30;20046;-75
2023/03/26 09:53:52;;;;;;;16.08;4.45;;;10.80;99.90;;;;;;4790186;30;20035;-75
2023/03/26 09:56:48;;;;;;;16.85;4.25;;;10.70;99.90;;;;;;4774715;30;20096;-75
2023/03/26 09:59:37;;;;;;;15.60;4.72;;;10.80;99.90;;;;;;4789442;30;20534;-76
2023/03/26 10:02:40;;;;;;;16.75;5.25;;;10.80;99.90;;;;;;4790416;30;20035;-75
2023/03/26 10:05:18;;;;;;;11.70;3.65;;;10.90;99.90;;;;;;4790148;30;20058;-74
2023/03/26 10:08:19;;;;;;;16.90;3.97;;;11.00;99.90;;;;;;4774485;30;20427;-74
2023/03/26 10:11:12;;;;;;;17.52;4.45;;;11.00;99.90;;;;;;4789417;30;20028;-73
2023/03/26 10:13:46;;;;;;;12.43;4.72;;;11.00;99.90;;;;;;4773449;30;20039;-75
2023/03/26 10:16:25;;;;;;;21.20;4.10;;;10.90;99.90;;;;;;4773668;30;20040;-76
2023/03/26 10:19:02;;;;;;;20.50;4.15;;;10.80;99.90;;;;;;4790022;30;20027;-75
2023/03/26 10:21:49;;;;;;;17.65;4.53;;;10.80;99.90;;;;;;4789888;30;20031;-76
2023/03/26 10:24:46;;;;;;;17.20;4.65;;;10.80;99.90;;;;;;4788920;30;20418;-76
2023/03/26 10:27:35;;;;;;;19.30;4.38;;;10.80;99.90;;;;;;4789191;30;20439;-76
2023/03/26 10:30:19;;;;;;;13.25;4.28;;;11.00;99.90;;;;;;4768722;30;20071;-76
2023/03/26 10:33:15;;;;;;;12.95;3.20;;;11.00;99.90;;;;;;4773449;30;20388;-75
2023/03/26 10:35:43;;;;;;;13.93;2.80;;;10.90;99.90;;;;;;4790018;30;20035;-75
2023/03/26 10:38:32;;;;;;;13.65;3.47;;;10.80;99.90;;;;;;4789788;30;20430;-75
2023/03/26 10:41:22;;;;;;;12.63;3.13;;;10.70;99.90;;;;;;4789507;30;20556;-75
2023/03/26 10:44:09;;;;;;;12.10;3.00;;;10.60;99.90;;;;;;4789425;30;20062;-75
2023/03/26 10:47:08;;;;;;;9.80;2.33;;;10.70;99.90;;;;;;4789912;30;20053;-75
2023/03/26 10:49:48;;;;;;;14.10;2.78;;;10.70;99.90;;;;;;4789632;30;20113;-75
2023/03/26 10:52:33;;;;;;;10.85;2.78;;;10.60;99.90;;;;;;4789689;30;20035;-74
2023/03/26 10:55:10;;;;;;;15.82;3.40;;;10.50;99.90;;;;;;4789639;30;20028;-76
2023/03/26 10:57:47;;;;;;;15.52;3.33;;;10.40;99.90;;;;;;4789296;30;20036;-75
2023/03/26 11:00:15;;;;;;;9.48;2.35;;;10.50;99.90;;;;;;4789831;30;20035;-75
2023/03/26 11:03:01;;;;;;;10.60;2.30;;;10.60;99.90;;;;;;4789360;30;20031;-76
2023/03/26 11:05:55;;;;;;;7.28;1.88;;;10.50;99.90;;;;;;4754437;30;20138;-75
2023/03/26 11:08:45;;;;;;;11.20;2.30;;;10.40;99.90;;;;;;4789147;30;20038;-74
2023/03/26 11:11:14;;;;;;;8.75;2.10;;;10.30;99.90;;;;;;4788296;30;20480;-75
2023/03/26 11:13:54;;;;;;;11.88;3.15;;;10.20;99.90;;;;;;4773873;30;20039;-75
2023/03/26 11:16:46;;;;;;;11.77;3.28;;;10.20;99.90;;;;;;4792616;30;20054;-75
2023/03/26 11:19:29;;;;;;;9.18;3.65;;;10.30;99.90;;;;;;4789664;30;20041;-75
2023/03/26 11:22:23;;;;;;;11.68;5.72;;;10.40;99.90;;;;;;4788778;30;20039;-77
2023/03/26 11:25:25;;;;;;;13.13;6.47;;;10.30;99.90;;;;;;4788976;30;20039;-75
2023/03/26 11:28:22;;;;;;;12.02;6.55;;;10.10;99.90;;;;;;4787827;30;20108;-74
2023/03/26 11:31:26;;;;;;;12.57;6.75;;;10.00;99.90;;;;;;4770093;30;20043;-74
2023/03/26 11:34:02;;;;;;;14.18;7.68;;;10.00;99.90;;;;;;4776902;30;20043;-73
2023/03/26 11:36:36;;;;;;;16.83;8.68;;;10.10;99.90;;;;;;4789303;30;20476;-83
2023/03/26 11:39:07;;;;;;;11.13;6.50;;;10.20;99.90;;;;;;4790793;30;20035;-82
2023/03/26 11:41:33;;;;;;;18.92;7.55;;;10.20;99.90;;;;;;4788882;29;20051;-82
2023/03/26 11:44:02;;;;;;;25.02;10.07;;;10.30;99.90;;;;;;4789386;30;20102;-81
2023/03/26 11:46:30;;;;;;;25.50;9.23;;;10.40;99.90;;;;;;4788498;30;20042;-84
2023/03/26 11:49:01;;;;;;;22.38;8.77;;;10.20;99.90;;;;;;4790770;30;20429;-84
2023/03/26 11:51:35;;;;;;;23.38;8.88;;;10.20;99.90;;;;;;4793654;30;20031;-83
2023/03/26 11:54:02;;;;;;;18.35;8.25;;;10.10;99.90;;;;;;4787819;30;20050;-83
2023/03/26 11:56:35;;;;;;;18.80;7.53;;;10.10;99.90;;;;;;4773368;30;20385;-83
2023/03/26 11:59:18;;;;;;;18.17;8.18;;;10.20;99.90;;;;;;4787054;30;20027;-82
2023/03/26 12:01:51;;;;;;;16.88;7.43;;;10.20;99.90;;;;;;4788592;30;20031;-83
2023/03/26 12:04:24;;;;;;;22.30;7.72;;;10.30;99.90;;;;;;4787560;30;20127;-81
2023/03/26 12:06:56;;;;;;;19.92;7.05;;;10.30;99.90;;;;;;4788586;30;20119;-82
2023/03/26 12:09:23;;;;;;;19.67;8.05;;;10.40;99.90;;;;;;4788966;30;20032;-82
2023/03/26 12:11:53;;;;;;;23.90;7.65;;;10.30;99.90;;;;;;4759635;30;20121;-82
2023/03/26 12:14:25;;;;;;;21.98;6.30;;;10.20;99.90;;;;;;4788752;30;20094;-82
2023/03/26 12:17:00;;;;;;;19.60;7.65;;;10.10;99.90;;;;;;4788323;30;20047;-84
2023/03/26 12:19:27;;;;;;;19.27;6.55;;;10.20;99.90;;;;;;4773441;30;20158;-83
2023/03/26 12:21:54;;;;;;;19.70;7.35;;;10.20;99.90;;;;;;4774184;30;20062;-81
2023/03/26 12:24:34;;;;;;;20.08;6.97;;;10.30;99.90;;;;;;4789422;30;20031;-82
2023/03/26 12:27:01;;;;;;;26.60;6.28;;;10.40;99.90;;;;;;4790237;30;20079;-84
2023/03/26 12:29:33;;;;;;;20.02;6.35;;;10.30;99.90;;;;;;4791022;30;20031;-83
2023/03/26 12:32:11;;;;;;;22.23;7.07;;;10.20;99.90;;;;;;4779900;30;20337;-82
2023/03/26 12:34:38;;;;;;;22.17;6.63;;;10.20;99.90;;;;;;4790120;30;20098;-82
2023/03/26 12:37:06;;;;;;;22.15;5.45;;;10.30;99.90;;;;;;4783536;30;20106;-82
2023/03/26 12:39:38;;;;;;;25.88;4.90;;;10.20;99.90;;;;;;4799191;30;20031;-81
2023/03/26 12:42:23;;;;;;;22.80;5.45;;;10.30;99.90;;;;;;4789419;30;20054;-76
2023/03/26 12:44:52;;;;;;;22.48;6.32;;;10.30;99.90;;;;;;4772650;30;20028;-79
2023/03/26 12:47:26;;;;;;;24.73;5.20;;;10.20;99.90;;;;;;4788189;30;20104;-76
2023/03/26 12:49:52;;;;;;;18.95;5.35;;;10.10;99.90;;;;;;4786881;30;20027;-75
2023/03/26 12:52:42;;;;;;;25.00;5.18;;;9.90;99.90;;;;;;4771014;30;20046;-77
2023/03/26 12:55:37;;;;;;;20.52;4.85;;;9.80;99.90;;;;;;4772075;30;20047;-79
2023/03/26 12:58:15;;;;;;;14.68;3.72;;;9.70;99.90;;;;;;4787181;29;20043;-80
2023/03/26 13:00:53;;;;;;;16.77;3.97;;;9.70;99.90;;;;;;4772010;30;20036;-78
2023/03/26 13:03:26;;;;;;;19.17;4.60;;;9.90;99.90;;;;;;4771986;30;20042;-77
2023/03/26 13:06:37;;;;;;;23.38;4.30;;;9.80;99.90;;;;;;4788151;30;20035;-77
2023/03/26 13:09:22;;;;;;;16.63;4.90;;;9.70;99.90;;;;;;4786889;30;20050;-80
2023/03/26 13:12:08;;;;;;;19.45;4.30;;;9.70;99.90;;;;;;4790487;30;20035;-81
2023/03/26 13:14:40;;;;;;;21.02;4.90;;;9.70;99.90;;;;;;4775505;30;20065;-79